sensor_id;sensor_type;location;lat;lon;timestamp;P1;durP1;ratioP1;P2;durP2;ratioP2
23360;SDS011;11852;50.082;18.554;2023-05-07T00:00:09;14.0;;;10.0;;
23360;SDS011;11852;50.082;18.554;2023-05-07T00:01:16;16.0;;;11.0;;
23360;SDS011;11852;50.082;18.554;2023-05-07T00:02:23;16.0;;;11.0;;
23360;SDS011;11852;50.082;18.554;2023-05-07T00:03:30;14.0;;;9.0;;
23360;SDS011;11852;50.082;18.554;2023-05-07T00:04:37;16.0;;;10.0;;
23360;SDS011;11852;50.082;18.554;2023-05-07T00:05:44;14.0;;;10.0;;
23360;SDS011;11852;50.082;18.554;2023-05-07T00:06:52;15.0;;;11.0;;
23360;SDS011;11852;50.082;18.554;2023-05-07T00:07:58;15.0;;;10.0;;
23360;SDS011;11852;50.082;18.554;2023-05-07T00:09:05;13.0;;;9.0;;
23360;SDS011;11852;50.082;18.554;2023-05-07T00:10:12;15.0;;;10.0;;
23360;SDS011;11852;50.082;18.554;2023-05-07T00:11:19;15.0;;;10.0;;
23360;SDS011;11852;50.082;18.554;2023-05-07T00:12:26;14.0;;;10.0;;
23360;SDS011;11852;50.082;18.554;2023-05-07T00:13:32;14.0;;;10.0;;
23360;SDS011;11852;50.082;18.554;2023-05-07T00:14:40;15.0;;;11.0;;
23360;SDS011;11852;50.082;18.554;2023-05-07T00:15:48;14.0;;;10.0;;
23360;SDS011;11852;50.082;18.554;2023-05-07T00:16:55;14.0;;;9.0;;
23360;SDS011;11852;50.082;18.554;2023-05-07T00:18:02;15.0;;;10.0;;
23360;SDS011;11852;50.082;18.554;2023-05-07T00:19:10;15.0;;;11.0;;
23360;SDS011;11852;50.082;18.554;2023-05-07T00:20:18;15.0;;;11.0;;
23360;SDS011;11852;50.082;18.554;2023-05-07T00:21:25;17.0;;;11.0;;
23360;SDS011;11852;50.082;18.554;2023-05-07T00:22:32;15.0;;;10.0;;
23360;SDS011;11852;50.082;18.554;2023-05-07T00:23:39;16.0;;;11.0;;
23360;SDS011;11852;50.082;18.554;2023-05-07T00:24:46;14.0;;;10.0;;
23360;SDS011;11852;50.082;18.554;2023-05-07T00:25:53;14.0;;;10.0;;
23360;SDS011;11852;50.082;18.554;2023-05-07T00:27:00;16.0;;;11.0;;
23360;SDS011;11852;50.082;18.554;2023-05-07T00:28:07;14.0;;;10.0;;
23360;SDS011;11852;50.082;18.554;2023-05-07T00:29:14;14.0;;;10.0;;
23360;SDS011;11852;50.082;18.554;2023-05-07T00:30:26;14.0;;;11.0;;
23360;SDS011;11852;50.082;18.554;2023-05-07T00:31:33;14.0;;;10.0;;
23360;SDS011;11852;50.082;18.554;2023-05-07T00:32:40;15.0;;;11.0;;
23360;SDS011;11852;50.082;18.554;2023-05-07T00:33:46;13.0;;;10.0;;
23360;SDS011;11852;50.082;18.554;2023-05-07T00:34:57;16.0;;;11.0;;
23360;SDS011;11852;50.082;18.554;2023-05-07T00:36:04;16.0;;;10.0;;
23360;SDS011;11852;50.082;18.554;2023-05-07T00:37:11;13.0;;;10.0;;
23360;SDS011;11852;50.082;18.554;2023-05-07T00:38:18;14.0;;;11.0;;
23360;SDS011;11852;50.082;18.554;2023-05-07T00:39:25;14.0;;;10.0;;
23360;SDS011;11852;50.082;18.554;2023-05-07T00:40:32;14.0;;;10.0;;
23360;SDS011;11852;50.082;18.554;2023-05-07T00:41:39;15.0;;;11.0;;
23360;SDS011;11852;50.082;18.554;2023-05-07T00:42:46;15.0;;;11.0;;
23360;SDS011;11852;50.082;18.554;2023-05-07T00:43:53;14.0;;;10.0;;
23360;SDS011;11852;50.082;18.554;2023-05-07T00:45:00;14.0;;;10.0;;
23360;SDS011;11852;50.082;18.554;2023-05-07T00:46:08;15.0;;;10.0;;
23360;SDS011;11852;50.082;18.554;2023-05-07T00:47:15;13.0;;;9.0;;
23360;SDS011;11852;50.082;18.554;2023-05-07T00:48:22;16.0;;;10.0;;
23360;SDS011;11852;50.082;18.554;2023-05-07T00:49:39;13.0;;;10.0;;
23360;SDS011;11852;50.082;18.554;2023-05-07T00:50:41;16.0;;;10.0;;
23360;SDS011;11852;50.082;18.554;2023-05-07T00:51:48;12.0;;;9.0;;
23360;SDS011;11852;50.082;18.554;2023-05-07T00:52:55;14.0;;;10.0;;
23360;SDS011;11852;50.082;18.554;2023-05-07T00:54:05;14.0;;;10.0;;
23360;SDS011;11852;50.082;18.554;2023-05-07T00:55:12;13.0;;;10.0;;
23360;SDS011;11852;50.082;18.554;2023-05-07T00:56:20;13.0;;;9.0;;
23360;SDS011;11852;50.082;18.554;2023-05-07T00:57:26;14.0;;;10.0;;
23360;SDS011;11852;50.082;18.554;2023-05-07T00:58:33;14.0;;;9.0;;
23360;SDS011;11852;50.082;18.554;2023-05-07T00:59:40;13.0;;;10.0;;
23360;SDS011;11852;50.082;18.554;2023-05-07T01:00:47;13.0;;;9.0;;
23360;SDS011;11852;50.082;18.554;2023-05-07T01:01:54;14.0;;;11.0;;
23360;SDS011;11852;50.082;18.554;2023-05-07T01:03:01;13.0;;;9.0;;
23360;SDS011;11852;50.082;18.554;2023-05-07T01:04:08;13.0;;;9.0;;
23360;SDS011;11852;50.082;18.554;2023-05-07T01:05:15;14.0;;;10.0;;
23360;SDS011;11852;50.082;18.554;2023-05-07T01:06:22;13.0;;;10.0;;
23360;SDS011;11852;50.082;18.554;2023-05-07T01:07:29;15.0;;;10.0;;
23360;SDS011;11852;50.082;18.554;2023-05-07T01:08:36;14.0;;;10.0;;
23360;SDS011;11852;50.082;18.554;2023-05-07T01:09:43;15.0;;;10.0;;
23360;SDS011;11852;50.082;18.554;2023-05-07T01:10:50;13.0;;;9.0;;
23360;SDS011;11852;50.082;18.554;2023-05-07T01:11:57;14.0;;;10.0;;
23360;SDS011;11852;50.082;18.554;2023-05-07T01:13:05;14.0;;;10.0;;
23360;SDS011;11852;50.082;18.554;2023-05-07T01:14:12;14.0;;;10.0;;
23360;SDS011;11852;50.082;18.554;2023-05-07T01:15:19;15.0;;;10.0;;
23360;SDS011;11852;50.082;18.554;2023-05-07T01:16:26;15.0;;;10.0;;
23360;SDS011;11852;50.082;18.554;2023-05-07T01:17:34;14.0;;;11.0;;
23360;SDS011;11852;50.082;18.554;2023-05-07T01:18:41;13.0;;;10.0;;
23360;SDS011;11852;50.082;18.554;2023-05-07T01:19:48;15.0;;;10.0;;
23360;SDS011;11852;50.082;18.554;2023-05-07T01:20:56;15.0;;;11.0;;
23360;SDS011;11852;50.082;18.554;2023-05-07T01:22:08;14.0;;;10.0;;
23360;SDS011;11852;50.082;18.554;2023-05-07T01:23:15;15.0;;;11.0;;
23360;SDS011;11852;50.082;18.554;2023-05-07T01:24:22;14.0;;;11.0;;
23360;SDS011;11852;50.082;18.554;2023-05-07T01:25:29;15.0;;;11.0;;
23360;SDS011;11852;50.082;18.554;2023-05-07T01:26:36;15.0;;;11.0;;
23360;SDS011;11852;50.082;18.554;2023-05-07T01:27:43;13.0;;;10.0;;
23360;SDS011;11852;50.082;18.554;2023-05-07T01:28:50;13.0;;;9.0;;
23360;SDS011;11852;50.082;18.554;2023-05-07T01:29:56;12.0;;;9.0;;
23360;SDS011;11852;50.082;18.554;2023-05-07T01:31:03;13.0;;;10.0;;
23360;SDS011;11852;50.082;18.554;2023-05-07T01:32:10;15.0;;;10.0;;
23360;SDS011;11852;50.082;18.554;2023-05-07T01:33:19;13.0;;;10.0;;
23360;SDS011;11852;50.082;18.554;2023-05-07T01:34:27;14.0;;;10.0;;
23360;SDS011;11852;50.082;18.554;2023-05-07T01:35:34;15.0;;;11.0;;
23360;SDS011;11852;50.082;18.554;2023-05-07T01:36:39;11.0;;;8.0;;
23360;SDS011;11852;50.082;18.554;2023-05-07T01:37:46;11.0;;;9.0;;
23360;SDS011;11852;50.082;18.554;2023-05-07T01:38:53;12.0;;;8.0;;
23360;SDS011;11852;50.082;18.554;2023-05-07T01:40:00;11.0;;;9.0;;
23360;SDS011;11852;50.082;18.554;2023-05-07T01:41:07;12.0;;;8.0;;
23360;SDS011;11852;50.082;18.554;2023-05-07T01:42:14;11.0;;;8.0;;
23360;SDS011;11852;50.082;18.554;2023-05-07T01:43:21;12.0;;;9.0;;
23360;SDS011;11852;50.082;18.554;2023-05-07T01:44:28;12.0;;;8.0;;
23360;SDS011;11852;50.082;18.554;2023-05-07T01:45:37;11.0;;;9.0;;
23360;SDS011;11852;50.082;18.554;2023-05-07T01:46:44;12.0;;;8.0;;
23360;SDS011;11852;50.082;18.554;2023-05-07T01:47:51;12.0;;;9.0;;
23360;SDS011;11852;50.082;18.554;2023-05-07T01:48:58;11.0;;;8.0;;
23360;SDS011;11852;50.082;18.554;2023-05-07T01:50:05;12.0;;;8.0;;
23360;SDS011;11852;50.082;18.554;2023-05-07T01:51:12;10.0;;;7.0;;
23360;SDS011;11852;50.082;18.554;2023-05-07T01:52:20;11.0;;;8.0;;
23360;SDS011;11852;50.082;18.554;2023-05-07T01:53:27;12.0;;;8.0;;
23360;SDS011;11852;50.082;18.554;2023-05-07T01:54:35;10.0;;;8.0;;
23360;SDS011;11852;50.082;18.554;2023-05-07T01:55:42;10.0;;;7.0;;
23360;SDS011;11852;50.082;18.554;2023-05-07T01:56:49;11.0;;;8.0;;
23360;SDS011;11852;50.082;18.554;2023-05-07T01:57:56;11.0;;;6.0;;
23360;SDS011;11852;50.082;18.554;2023-05-07T01:59:04;11.0;;;7.0;;
23360;SDS011;11852;50.082;18.554;2023-05-07T02:00:11;10.0;;;7.0;;
23360;SDS011;11852;50.082;18.554;2023-05-07T02:01:18;9.0;;;6.0;;
23360;SDS011;11852;50.082;18.554;2023-05-07T02:02:25;9.0;;;6.0;;
23360;SDS011;11852;50.082;18.554;2023-05-07T02:03:32;9.0;;;6.0;;
23360;SDS011;11852;50.082;18.554;2023-05-07T02:04:42;9.0;;;6.0;;
23360;SDS011;11852;50.082;18.554;2023-05-07T02:05:49;10.0;;;6.0;;
23360;SDS011;11852;50.082;18.554;2023-05-07T02:06:56;8.0;;;5.0;;
23360;SDS011;11852;50.082;18.554;2023-05-07T02:08:03;8.0;;;5.0;;
23360;SDS011;11852;50.082;18.554;2023-05-07T02:09:10;9.0;;;6.0;;
23360;SDS011;11852;50.082;18.554;2023-05-07T02:10:17;9.0;;;6.0;;
23360;SDS011;11852;50.082;18.554;2023-05-07T02:11:24;9.0;;;6.0;;
23360;SDS011;11852;50.082;18.554;2023-05-07T02:12:31;9.0;;;5.0;;
23360;SDS011;11852;50.082;18.554;2023-05-07T02:13:38;10.0;;;6.0;;
23360;SDS011;11852;50.082;18.554;2023-05-07T02:14:44;10.0;;;6.0;;
23360;SDS011;11852;50.082;18.554;2023-05-07T02:15:51;8.0;;;5.0;;
23360;SDS011;11852;50.082;18.554;2023-05-07T02:16:58;8.0;;;5.0;;
23360;SDS011;11852;50.082;18.554;2023-05-07T02:18:07;8.0;;;6.0;;
23360;SDS011;11852;50.082;18.554;2023-05-07T02:19:12;8.0;;;5.0;;
23360;SDS011;11852;50.082;18.554;2023-05-07T02:20:20;9.0;;;5.0;;
23360;SDS011;11852;50.082;18.554;2023-05-07T02:21:28;9.0;;;6.0;;
23360;SDS011;11852;50.082;18.554;2023-05-07T02:22:34;8.0;;;5.0;;
23360;SDS011;11852;50.082;18.554;2023-05-07T02:23:41;9.0;;;5.0;;
23360;SDS011;11852;50.082;18.554;2023-05-07T02:24:48;9.0;;;5.0;;
23360;SDS011;11852;50.082;18.554;2023-05-07T02:25:56;9.0;;;5.0;;
23360;SDS011;11852;50.082;18.554;2023-05-07T02:27:03;9.0;;;6.0;;
23360;SDS011;11852;50.082;18.554;2023-05-07T02:28:10;10.0;;;5.0;;
23360;SDS011;11852;50.082;18.554;2023-05-07T02:29:19;9.0;;;5.0;;
23360;SDS011;11852;50.082;18.554;2023-05-07T02:30:26;9.0;;;5.0;;
23360;SDS011;11852;50.082;18.554;2023-05-07T02:31:36;9.0;;;5.0;;
23360;SDS011;11852;50.082;18.554;2023-05-07T02:32:43;10.0;;;6.0;;
23360;SDS011;11852;50.082;18.554;2023-05-07T02:33:50;9.0;;;5.0;;
23360;SDS011;11852;50.082;18.554;2023-05-07T02:34:58;9.0;;;6.0;;
23360;SDS011;11852;50.082;18.554;2023-05-07T02:36:08;9.0;;;6.0;;
23360;SDS011;11852;50.082;18.554;2023-05-07T02:37:15;9.0;;;6.0;;
23360;SDS011;11852;50.082;18.554;2023-05-07T02:38:22;9.0;;;6.0;;
23360;SDS011;11852;50.082;18.554;2023-05-07T02:39:29;8.0;;;5.0;;
23360;SDS011;11852;50.082;18.554;2023-05-07T02:40:36;9.0;;;5.0;;
23360;SDS011;11852;50.082;18.554;2023-05-07T02:41:43;9.0;;;6.0;;
23360;SDS011;11852;50.082;18.554;2023-05-07T02:42:51;9.0;;;5.0;;
23360;SDS011;11852;50.082;18.554;2023-05-07T02:43:58;10.0;;;5.0;;
23360;SDS011;11852;50.082;18.554;2023-05-07T02:45:05;10.0;;;5.0;;
23360;SDS011;11852;50.082;18.554;2023-05-07T02:46:12;9.0;;;5.0;;
23360;SDS011;11852;50.082;18.554;2023-05-07T02:47:20;10.0;;;5.0;;
23360;SDS011;11852;50.082;18.554;2023-05-07T02:48:27;9.0;;;5.0;;
23360;SDS011;11852;50.082;18.554;2023-05-07T02:49:34;9.0;;;5.0;;
23360;SDS011;11852;50.082;18.554;2023-05-07T02:50:41;7.0;;;5.0;;
23360;SDS011;11852;50.082;18.554;2023-05-07T02:51:48;8.0;;;5.0;;
23360;SDS011;11852;50.082;18.554;2023-05-07T02:52:55;10.0;;;5.0;;
23360;SDS011;11852;50.082;18.554;2023-05-07T02:54:02;9.0;;;6.0;;
23360;SDS011;11852;50.082;18.554;2023-05-07T02:55:09;11.0;;;6.0;;
23360;SDS011;11852;50.082;18.554;2023-05-07T02:56:16;9.0;;;6.0;;
23360;SDS011;11852;50.082;18.554;2023-05-07T02:57:23;10.0;;;6.0;;
23360;SDS011;11852;50.082;18.554;2023-05-07T02:58:30;10.0;;;6.0;;
23360;SDS011;11852;50.082;18.554;2023-05-07T02:59:37;11.0;;;6.0;;
23360;SDS011;11852;50.082;18.554;2023-05-07T03:00:44;11.0;;;6.0;;
23360;SDS011;11852;50.082;18.554;2023-05-07T03:01:51;10.0;;;6.0;;
23360;SDS011;11852;50.082;18.554;2023-05-07T03:02:57;11.0;;;6.0;;
23360;SDS011;11852;50.082;18.554;2023-05-07T03:04:05;10.0;;;6.0;;
23360;SDS011;11852;50.082;18.554;2023-05-07T03:05:11;10.0;;;6.0;;
23360;SDS011;11852;50.082;18.554;2023-05-07T03:06:18;10.0;;;6.0;;
23360;SDS011;11852;50.082;18.554;2023-05-07T03:07:25;12.0;;;6.0;;
23360;SDS011;11852;50.082;18.554;2023-05-07T03:08:32;10.0;;;6.0;;
23360;SDS011;11852;50.082;18.554;2023-05-07T03:09:39;9.0;;;6.0;;
23360;SDS011;11852;50.082;18.554;2023-05-07T03:10:47;9.0;;;5.0;;
23360;SDS011;11852;50.082;18.554;2023-05-07T03:11:55;12.0;;;6.0;;
23360;SDS011;11852;50.082;18.554;2023-05-07T03:13:02;10.0;;;6.0;;
23360;SDS011;11852;50.082;18.554;2023-05-07T03:14:09;11.0;;;5.0;;
23360;SDS011;11852;50.082;18.554;2023-05-07T03:15:16;10.0;;;6.0;;
23360;SDS011;11852;50.082;18.554;2023-05-07T03:16:23;10.0;;;5.0;;
23360;SDS011;11852;50.082;18.554;2023-05-07T03:17:30;11.0;;;6.0;;
23360;SDS011;11852;50.082;18.554;2023-05-07T03:18:37;9.0;;;5.0;;
23360;SDS011;11852;50.082;18.554;2023-05-07T03:19:44;10.0;;;6.0;;
23360;SDS011;11852;50.082;18.554;2023-05-07T03:20:51;10.0;;;6.0;;
23360;SDS011;11852;50.082;18.554;2023-05-07T03:21:59;10.0;;;6.0;;
23360;SDS011;11852;50.082;18.554;2023-05-07T03:23:06;9.0;;;6.0;;
23360;SDS011;11852;50.082;18.554;2023-05-07T03:24:13;11.0;;;6.0;;
23360;SDS011;11852;50.082;18.554;2023-05-07T03:25:20;11.0;;;6.0;;
23360;SDS011;11852;50.082;18.554;2023-05-07T03:26:27;10.0;;;6.0;;
23360;SDS011;11852;50.082;18.554;2023-05-07T03:27:36;10.0;;;6.0;;
23360;SDS011;11852;50.082;18.554;2023-05-07T03:28:43;12.0;;;7.0;;
23360;SDS011;11852;50.082;18.554;2023-05-07T03:29:50;10.0;;;7.0;;
23360;SDS011;11852;50.082;18.554;2023-05-07T03:30:57;13.0;;;7.0;;
23360;SDS011;11852;50.082;18.554;2023-05-07T03:32:04;10.0;;;7.0;;
23360;SDS011;11852;50.082;18.554;2023-05-07T03:33:11;11.0;;;7.0;;
23360;SDS011;11852;50.082;18.554;2023-05-07T03:34:18;9.0;;;6.0;;
23360;SDS011;11852;50.082;18.554;2023-05-07T03:35:25;10.0;;;6.0;;
23360;SDS011;11852;50.082;18.554;2023-05-07T03:36:32;12.0;;;7.0;;
23360;SDS011;11852;50.082;18.554;2023-05-07T03:37:39;12.0;;;7.0;;
23360;SDS011;11852;50.082;18.554;2023-05-07T03:38:46;12.0;;;7.0;;
23360;SDS011;11852;50.082;18.554;2023-05-07T03:39:53;10.0;;;7.0;;
23360;SDS011;11852;50.082;18.554;2023-05-07T03:41:00;10.0;;;7.0;;
23360;SDS011;11852;50.082;18.554;2023-05-07T03:42:07;10.0;;;7.0;;
23360;SDS011;11852;50.082;18.554;2023-05-07T03:43:15;10.0;;;7.0;;
23360;SDS011;11852;50.082;18.554;2023-05-07T03:44:22;12.0;;;7.0;;
23360;SDS011;11852;50.082;18.554;2023-05-07T03:45:29;12.0;;;7.0;;
23360;SDS011;11852;50.082;18.554;2023-05-07T03:46:36;11.0;;;7.0;;
23360;SDS011;11852;50.082;18.554;2023-05-07T03:47:46;13.0;;;7.0;;
23360;SDS011;11852;50.082;18.554;2023-05-07T03:48:53;11.0;;;7.0;;
23360;SDS011;11852;50.082;18.554;2023-05-07T03:50:00;11.0;;;7.0;;
23360;SDS011;11852;50.082;18.554;2023-05-07T03:51:07;10.0;;;7.0;;
23360;SDS011;11852;50.082;18.554;2023-05-07T03:52:14;11.0;;;7.0;;
23360;SDS011;11852;50.082;18.554;2023-05-07T03:53:21;12.0;;;7.0;;
23360;SDS011;11852;50.082;18.554;2023-05-07T03:54:29;13.0;;;8.0;;
23360;SDS011;11852;50.082;18.554;2023-05-07T03:55:35;12.0;;;8.0;;
23360;SDS011;11852;50.082;18.554;2023-05-07T03:56:42;13.0;;;7.0;;
23360;SDS011;11852;50.082;18.554;2023-05-07T03:57:49;12.0;;;7.0;;
23360;SDS011;11852;50.082;18.554;2023-05-07T03:58:56;13.0;;;7.0;;
23360;SDS011;11852;50.082;18.554;2023-05-07T04:00:03;12.0;;;8.0;;
23360;SDS011;11852;50.082;18.554;2023-05-07T04:01:10;10.0;;;7.0;;
23360;SDS011;11852;50.082;18.554;2023-05-07T04:02:17;11.0;;;7.0;;
23360;SDS011;11852;50.082;18.554;2023-05-07T04:03:24;11.0;;;7.0;;
23360;SDS011;11852;50.082;18.554;2023-05-07T04:04:31;12.0;;;6.0;;
23360;SDS011;11852;50.082;18.554;2023-05-07T04:05:38;10.0;;;6.0;;
23360;SDS011;11852;50.082;18.554;2023-05-07T04:06:45;10.0;;;6.0;;
23360;SDS011;11852;50.082;18.554;2023-05-07T04:07:53;10.0;;;6.0;;
23360;SDS011;11852;50.082;18.554;2023-05-07T04:09:00;9.0;;;6.0;;
23360;SDS011;11852;50.082;18.554;2023-05-07T04:10:08;10.0;;;6.0;;
23360;SDS011;11852;50.082;18.554;2023-05-07T04:11:15;9.0;;;6.0;;
23360;SDS011;11852;50.082;18.554;2023-05-07T04:12:22;10.0;;;5.0;;
23360;SDS011;11852;50.082;18.554;2023-05-07T04:13:29;10.0;;;5.0;;
23360;SDS011;11852;50.082;18.554;2023-05-07T04:14:36;8.0;;;6.0;;
23360;SDS011;11852;50.082;18.554;2023-05-07T04:15:43;9.0;;;6.0;;
23360;SDS011;11852;50.082;18.554;2023-05-07T04:16:50;9.0;;;5.0;;
23360;SDS011;11852;50.082;18.554;2023-05-07T04:17:58;9.0;;;6.0;;
23360;SDS011;11852;50.082;18.554;2023-05-07T04:19:05;8.0;;;5.0;;
23360;SDS011;11852;50.082;18.554;2023-05-07T04:20:16;9.0;;;6.0;;
23360;SDS011;11852;50.082;18.554;2023-05-07T04:21:23;8.0;;;5.0;;
23360;SDS011;11852;50.082;18.554;2023-05-07T04:22:30;8.0;;;5.0;;
23360;SDS011;11852;50.082;18.554;2023-05-07T04:23:37;8.0;;;5.0;;
23360;SDS011;11852;50.082;18.554;2023-05-07T04:24:44;8.0;;;5.0;;
23360;SDS011;11852;50.082;18.554;2023-05-07T04:25:51;8.0;;;5.0;;
23360;SDS011;11852;50.082;18.554;2023-05-07T04:26:58;7.0;;;5.0;;
23360;SDS011;11852;50.082;18.554;2023-05-07T04:28:05;8.0;;;5.0;;
23360;SDS011;11852;50.082;18.554;2023-05-07T04:29:12;7.0;;;5.0;;
23360;SDS011;11852;50.082;18.554;2023-05-07T04:30:19;8.0;;;5.0;;
23360;SDS011;11852;50.082;18.554;2023-05-07T04:31:26;9.0;;;5.0;;
23360;SDS011;11852;50.082;18.554;2023-05-07T04:32:33;8.0;;;5.0;;
23360;SDS011;11852;50.082;18.554;2023-05-07T04:33:40;8.0;;;5.0;;
23360;SDS011;11852;50.082;18.554;2023-05-07T04:34:48;9.0;;;5.0;;
23360;SDS011;11852;50.082;18.554;2023-05-07T04:35:55;9.0;;;5.0;;
23360;SDS011;11852;50.082;18.554;2023-05-07T04:37:02;8.0;;;5.0;;
23360;SDS011;11852;50.082;18.554;2023-05-07T04:38:09;7.0;;;5.0;;
23360;SDS011;11852;50.082;18.554;2023-05-07T04:39:16;8.0;;;5.0;;
23360;SDS011;11852;50.082;18.554;2023-05-07T04:40:23;9.0;;;5.0;;
23360;SDS011;11852;50.082;18.554;2023-05-07T04:41:30;9.0;;;5.0;;
23360;SDS011;11852;50.082;18.554;2023-05-07T04:42:38;8.0;;;5.0;;
23360;SDS011;11852;50.082;18.554;2023-05-07T04:43:45;9.0;;;5.0;;
23360;SDS011;11852;50.082;18.554;2023-05-07T04:44:52;8.0;;;4.0;;
23360;SDS011;11852;50.082;18.554;2023-05-07T04:45:58;9.0;;;4.0;;
23360;SDS011;11852;50.082;18.554;2023-05-07T04:47:05;8.0;;;5.0;;
23360;SDS011;11852;50.082;18.554;2023-05-07T04:48:12;8.0;;;5.0;;
23360;SDS011;11852;50.082;18.554;2023-05-07T04:49:21;8.0;;;5.0;;
23360;SDS011;11852;50.082;18.554;2023-05-07T04:50:28;8.0;;;4.0;;
23360;SDS011;11852;50.082;18.554;2023-05-07T04:51:35;8.0;;;4.0;;
23360;SDS011;11852;50.082;18.554;2023-05-07T04:52:42;9.0;;;5.0;;
23360;SDS011;11852;50.082;18.554;2023-05-07T04:53:49;7.0;;;5.0;;
23360;SDS011;11852;50.082;18.554;2023-05-07T04:54:56;8.0;;;4.0;;
23360;SDS011;11852;50.082;18.554;2023-05-07T04:56:03;8.0;;;4.0;;
23360;SDS011;11852;50.082;18.554;2023-05-07T04:57:10;8.0;;;4.0;;
23360;SDS011;11852;50.082;18.554;2023-05-07T04:58:17;8.0;;;4.0;;
23360;SDS011;11852;50.082;18.554;2023-05-07T04:59:24;7.0;;;4.0;;
23360;SDS011;11852;50.082;18.554;2023-05-07T05:00:31;7.0;;;4.0;;
23360;SDS011;11852;50.082;18.554;2023-05-07T05:01:38;7.0;;;4.0;;
23360;SDS011;11852;50.082;18.554;2023-05-07T05:02:45;8.0;;;4.0;;
23360;SDS011;11852;50.082;18.554;2023-05-07T05:03:52;8.0;;;4.0;;
23360;SDS011;11852;50.082;18.554;2023-05-07T05:04:59;7.0;;;4.0;;
23360;SDS011;11852;50.082;18.554;2023-05-07T05:06:06;10.0;;;4.0;;
23360;SDS011;11852;50.082;18.554;2023-05-07T05:07:13;7.0;;;3.0;;
23360;SDS011;11852;50.082;18.554;2023-05-07T05:08:19;7.0;;;4.0;;
23360;SDS011;11852;50.082;18.554;2023-05-07T05:09:26;6.0;;;3.0;;
23360;SDS011;11852;50.082;18.554;2023-05-07T05:10:33;6.0;;;3.0;;
23360;SDS011;11852;50.082;18.554;2023-05-07T05:11:40;6.0;;;3.0;;
23360;SDS011;11852;50.082;18.554;2023-05-07T05:12:47;7.0;;;3.0;;
23360;SDS011;11852;50.082;18.554;2023-05-07T05:13:54;7.0;;;3.0;;
23360;SDS011;11852;50.082;18.554;2023-05-07T05:15:01;5.0;;;2.0;;
23360;SDS011;11852;50.082;18.554;2023-05-07T05:16:08;5.0;;;2.0;;
23360;SDS011;11852;50.082;18.554;2023-05-07T05:17:15;5.0;;;3.0;;
23360;SDS011;11852;50.082;18.554;2023-05-07T05:18:22;6.0;;;3.0;;
23360;SDS011;11852;50.082;18.554;2023-05-07T05:19:29;5.0;;;2.0;;
23360;SDS011;11852;50.082;18.554;2023-05-07T05:20:36;6.0;;;3.0;;
23360;SDS011;11852;50.082;18.554;2023-05-07T05:21:43;6.0;;;3.0;;
23360;SDS011;11852;50.082;18.554;2023-05-07T05:22:50;6.0;;;3.0;;
23360;SDS011;11852;50.082;18.554;2023-05-07T05:23:57;6.0;;;3.0;;
23360;SDS011;11852;50.082;18.554;2023-05-07T05:25:04;5.0;;;3.0;;
23360;SDS011;11852;50.082;18.554;2023-05-07T05:26:11;7.0;;;4.0;;
23360;SDS011;11852;50.082;18.554;2023-05-07T05:27:18;6.0;;;3.0;;
23360;SDS011;11852;50.082;18.554;2023-05-07T05:28:25;5.0;;;3.0;;
23360;SDS011;11852;50.082;18.554;2023-05-07T05:29:32;7.0;;;3.0;;
23360;SDS011;11852;50.082;18.554;2023-05-07T05:30:39;5.0;;;3.0;;
23360;SDS011;11852;50.082;18.554;2023-05-07T05:31:46;5.0;;;3.0;;
23360;SDS011;11852;50.082;18.554;2023-05-07T05:32:53;6.0;;;3.0;;
23360;SDS011;11852;50.082;18.554;2023-05-07T05:34:00;7.0;;;3.0;;
23360;SDS011;11852;50.082;18.554;2023-05-07T05:35:07;5.0;;;3.0;;
23360;SDS011;11852;50.082;18.554;2023-05-07T05:36:14;6.0;;;3.0;;
23360;SDS011;11852;50.082;18.554;2023-05-07T05:37:21;6.0;;;3.0;;
23360;SDS011;11852;50.082;18.554;2023-05-07T05:38:27;5.0;;;3.0;;
23360;SDS011;11852;50.082;18.554;2023-05-07T05:39:34;5.0;;;2.0;;
23360;SDS011;11852;50.082;18.554;2023-05-07T05:40:42;6.0;;;3.0;;
23360;SDS011;11852;50.082;18.554;2023-05-07T05:41:49;5.0;;;2.0;;
23360;SDS011;11852;50.082;18.554;2023-05-07T05:42:56;7.0;;;3.0;;
23360;SDS011;11852;50.082;18.554;2023-05-07T05:44:03;6.0;;;2.0;;
23360;SDS011;11852;50.082;18.554;2023-05-07T05:45:10;6.0;;;3.0;;
23360;SDS011;11852;50.082;18.554;2023-05-07T05:46:17;6.0;;;3.0;;
23360;SDS011;11852;50.082;18.554;2023-05-07T05:47:24;5.0;;;3.0;;
23360;SDS011;11852;50.082;18.554;2023-05-07T05:48:31;6.0;;;3.0;;
23360;SDS011;11852;50.082;18.554;2023-05-07T05:49:38;5.0;;;3.0;;
23360;SDS011;11852;50.082;18.554;2023-05-07T05:50:45;5.0;;;3.0;;
23360;SDS011;11852;50.082;18.554;2023-05-07T05:51:52;6.0;;;3.0;;
23360;SDS011;11852;50.082;18.554;2023-05-07T05:52:59;6.0;;;3.0;;
23360;SDS011;11852;50.082;18.554;2023-05-07T05:54:06;6.0;;;3.0;;
23360;SDS011;11852;50.082;18.554;2023-05-07T05:55:13;5.0;;;3.0;;
23360;SDS011;11852;50.082;18.554;2023-05-07T05:56:20;6.0;;;3.0;;
23360;SDS011;11852;50.082;18.554;2023-05-07T05:57:27;6.0;;;3.0;;
23360;SDS011;11852;50.082;18.554;2023-05-07T05:58:35;7.0;;;3.0;;
23360;SDS011;11852;50.082;18.554;2023-05-07T05:59:42;6.0;;;3.0;;
23360;SDS011;11852;50.082;18.554;2023-05-07T06:00:49;5.0;;;3.0;;
23360;SDS011;11852;50.082;18.554;2023-05-07T06:01:56;7.0;;;3.0;;
23360;SDS011;11852;50.082;18.554;2023-05-07T06:03:05;8.0;;;4.0;;
23360;SDS011;11852;50.082;18.554;2023-05-07T06:04:13;8.0;;;4.0;;
23360;SDS011;11852;50.082;18.554;2023-05-07T06:05:20;6.0;;;4.0;;
23360;SDS011;11852;50.082;18.554;2023-05-07T06:06:27;8.0;;;4.0;;
23360;SDS011;11852;50.082;18.554;2023-05-07T06:07:34;7.0;;;4.0;;
23360;SDS011;11852;50.082;18.554;2023-05-07T06:08:41;7.0;;;4.0;;
23360;SDS011;11852;50.082;18.554;2023-05-07T06:09:48;8.0;;;4.0;;
23360;SDS011;11852;50.082;18.554;2023-05-07T06:10:55;7.0;;;4.0;;
23360;SDS011;11852;50.082;18.554;2023-05-07T06:12:01;7.0;;;5.0;;
23360;SDS011;11852;50.082;18.554;2023-05-07T06:13:08;8.0;;;5.0;;
23360;SDS011;11852;50.082;18.554;2023-05-07T06:14:15;9.0;;;5.0;;
23360;SDS011;11852;50.082;18.554;2023-05-07T06:15:22;8.0;;;4.0;;
23360;SDS011;11852;50.082;18.554;2023-05-07T06:16:31;8.0;;;5.0;;
23360;SDS011;11852;50.082;18.554;2023-05-07T06:17:45;8.0;;;4.0;;
23360;SDS011;11852;50.082;18.554;2023-05-07T06:18:52;9.0;;;5.0;;
23360;SDS011;11852;50.082;18.554;2023-05-07T06:20:00;8.0;;;4.0;;
23360;SDS011;11852;50.082;18.554;2023-05-07T06:21:07;9.0;;;5.0;;
23360;SDS011;11852;50.082;18.554;2023-05-07T06:22:14;8.0;;;4.0;;
23360;SDS011;11852;50.082;18.554;2023-05-07T06:23:20;8.0;;;5.0;;
23360;SDS011;11852;50.082;18.554;2023-05-07T06:24:28;9.0;;;5.0;;
23360;SDS011;11852;50.082;18.554;2023-05-07T06:25:34;8.0;;;4.0;;
23360;SDS011;11852;50.082;18.554;2023-05-07T06:26:42;7.0;;;4.0;;
23360;SDS011;11852;50.082;18.554;2023-05-07T06:27:48;7.0;;;4.0;;
23360;SDS011;11852;50.082;18.554;2023-05-07T06:28:55;8.0;;;4.0;;
23360;SDS011;11852;50.082;18.554;2023-05-07T06:30:03;8.0;;;4.0;;
23360;SDS011;11852;50.082;18.554;2023-05-07T06:32:22;8.0;;;5.0;;
23360;SDS011;11852;50.082;18.554;2023-05-07T06:33:29;8.0;;;4.0;;
23360;SDS011;11852;50.082;18.554;2023-05-07T06:34:37;8.0;;;4.0;;
23360;SDS011;11852;50.082;18.554;2023-05-07T06:35:43;9.0;;;4.0;;
23360;SDS011;11852;50.082;18.554;2023-05-07T06:36:50;7.0;;;4.0;;
23360;SDS011;11852;50.082;18.554;2023-05-07T06:37:57;8.0;;;5.0;;
23360;SDS011;11852;50.082;18.554;2023-05-07T06:39:04;10.0;;;5.0;;
23360;SDS011;11852;50.082;18.554;2023-05-07T06:40:11;9.0;;;5.0;;
23360;SDS011;11852;50.082;18.554;2023-05-07T06:41:18;8.0;;;4.0;;
23360;SDS011;11852;50.082;18.554;2023-05-07T06:42:25;11.0;;;5.0;;
23360;SDS011;11852;50.082;18.554;2023-05-07T06:43:32;9.0;;;5.0;;
23360;SDS011;11852;50.082;18.554;2023-05-07T06:44:39;10.0;;;5.0;;
23360;SDS011;11852;50.082;18.554;2023-05-07T06:45:46;7.0;;;5.0;;
23360;SDS011;11852;50.082;18.554;2023-05-07T06:46:53;8.0;;;5.0;;
23360;SDS011;11852;50.082;18.554;2023-05-07T06:48:00;8.0;;;5.0;;